createdAt,value
2018-06-14T00:00:16.934Z,15.20
2018-06-14T00:02:46.407Z,15.20
2018-06-14T00:05:15.704Z,15.20
2018-06-14T00:07:45.153Z,15.20
2018-06-14T00:10:14.505Z,15.20
2018-06-14T00:12:43.874Z,15.20
2018-06-14T00:15:13.214Z,15.20
2018-06-14T00:17:42.534Z,15.10
2018-06-14T00:20:11.885Z,15.00
2018-06-14T00:22:41.233Z,15.00
2018-06-14T00:25:10.565Z,15.10
2018-06-14T00:27:39.921Z,15.10
2018-06-14T00:30:09.209Z,15.10
2018-06-14T00:32:38.606Z,15.10
2018-06-14T00:35:07.931Z,15.10
2018-06-14T00:37:37.272Z,15.10
2018-06-14T00:40:06.613Z,15.10
2018-06-14T00:42:35.997Z,15.10
2018-06-14T00:45:05.439Z,15.00
2018-06-14T00:47:34.835Z,15.00
2018-06-14T00:50:04.481Z,15.00
2018-06-14T00:52:33.802Z,15.00
2018-06-14T00:55:03.189Z,15.00
2018-06-14T00:57:33.216Z,15.00
2018-06-14T01:00:02.581Z,15.00
2018-06-14T01:02:32.665Z,15.00
2018-06-14T01:05:02.202Z,15.00
2018-06-14T01:07:31.485Z,14.90
2018-06-14T01:10:00.953Z,15.00
2018-06-14T01:12:30.287Z,14.90
2018-06-14T01:14:59.620Z,14.90
2018-06-14T01:17:28.998Z,14.80
2018-06-14T01:19:58.451Z,14.70
2018-06-14T01:22:27.755Z,14.80
2018-06-14T01:24:57.261Z,14.70
2018-06-14T01:27:26.568Z,14.70
2018-06-14T01:29:55.937Z,14.70
2018-06-14T01:32:25.254Z,14.70
2018-06-14T01:34:54.577Z,14.70
2018-06-14T01:37:35.194Z,14.70
2018-06-14T01:40:04.586Z,14.80
2018-06-14T01:42:33.880Z,14.70
2018-06-14T01:45:03.285Z,14.70
2018-06-14T01:47:32.604Z,14.60
2018-06-14T01:50:01.923Z,14.70
2018-06-14T01:52:31.254Z,14.70
2018-06-14T01:55:00.613Z,14.70
2018-06-14T01:57:29.909Z,14.70
2018-06-14T01:59:59.266Z,14.70
2018-06-14T02:02:39.786Z,14.60
2018-06-14T02:05:09.087Z,14.60
2018-06-14T02:07:38.370Z,14.70
2018-06-14T02:10:07.662Z,14.70
2018-06-14T02:12:36.975Z,14.70
2018-06-14T02:15:06.449Z,14.60
2018-06-14T02:17:35.761Z,14.60
2018-06-14T02:20:05.727Z,14.70
2018-06-14T02:22:35.144Z,14.70
2018-06-14T02:25:04.587Z,14.60
2018-06-14T02:27:33.879Z,14.60
2018-06-14T02:30:03.246Z,14.70
2018-06-14T02:32:32.579Z,14.60
2018-06-14T02:35:01.852Z,14.60
2018-06-14T02:37:34.703Z,14.50
2018-06-14T02:40:04.764Z,14.60
2018-06-14T02:42:34.239Z,14.70
2018-06-14T02:45:03.748Z,14.60
2018-06-14T02:47:33.191Z,14.60
2018-06-14T02:50:02.598Z,14.60
2018-06-14T02:52:31.984Z,14.60
2018-06-14T02:55:02.398Z,14.50
2018-06-14T02:57:31.799Z,14.40
2018-06-14T03:00:01.120Z,14.40
2018-06-14T03:02:30.535Z,14.50
2018-06-14T03:04:59.883Z,14.50
2018-06-14T03:07:34.956Z,14.50
2018-06-14T03:10:05.396Z,14.30
2018-06-14T03:12:34.744Z,14.40
2018-06-14T03:15:04.207Z,14.30
2018-06-14T03:17:33.592Z,14.20
2018-06-14T03:20:02.937Z,14.20
2018-06-14T03:22:32.286Z,14.30
2018-06-14T03:25:01.717Z,14.30
2018-06-14T03:27:30.994Z,14.30
2018-06-14T03:30:00.439Z,14.30
2018-06-14T03:32:29.876Z,14.40
2018-06-14T03:34:59.173Z,14.30
2018-06-14T03:37:28.466Z,14.40
2018-06-14T03:39:57.811Z,14.50
2018-06-14T03:42:27.168Z,13.70
2018-06-14T03:44:56.540Z,13.40
2018-06-14T03:47:25.829Z,13.20
2018-06-14T03:49:55.163Z,13.00
2018-06-14T03:52:24.485Z,13.00
2018-06-14T03:54:54.870Z,13.30
2018-06-14T03:57:24.173Z,13.50
2018-06-14T03:59:53.455Z,13.80
2018-06-14T04:02:22.756Z,13.90
2018-06-14T04:07:20.994Z,14.00
2018-06-14T04:09:50.316Z,14.20
2018-06-14T04:12:19.624Z,14.20
2018-06-14T04:14:48.930Z,14.20
2018-06-14T04:17:19.375Z,13.60
2018-06-14T04:22:19.102Z,13.60
2018-06-14T04:24:48.498Z,13.80
2018-06-14T04:27:17.919Z,13.60
2018-06-14T04:29:47.356Z,13.30
2018-06-14T04:32:16.660Z,13.30
2018-06-14T04:34:46.042Z,13.40
2018-06-14T04:37:15.359Z,13.60
2018-06-14T04:39:44.701Z,13.80
2018-06-14T04:42:14.052Z,14.00
2018-06-14T04:44:43.355Z,14.00
2018-06-14T04:47:12.765Z,13.90
2018-06-14T04:49:42.087Z,14.00
2018-06-14T04:52:11.408Z,14.20
2018-06-14T04:54:41.814Z,14.20
2018-06-14T04:57:11.123Z,14.30
2018-06-14T04:59:40.487Z,14.50
2018-06-14T05:02:09.799Z,14.50
2018-06-14T05:04:39.203Z,14.50
2018-06-14T05:07:08.531Z,14.30
2018-06-14T05:09:37.875Z,14.20
2018-06-14T05:12:07.316Z,14.50
2018-06-14T05:14:36.587Z,14.60
2018-06-14T05:17:05.915Z,14.70
2018-06-14T05:19:35.214Z,14.80
2018-06-14T05:22:04.601Z,14.70
2018-06-14T05:24:33.877Z,14.60
2018-06-14T05:27:03.273Z,14.10
2018-06-14T05:29:32.594Z,14.30
2018-06-14T06:54:01.789Z,14.70
2018-06-14T06:56:31.128Z,16.10
2018-06-14T06:59:00.484Z,16.20
2018-06-14T07:01:29.756Z,16.40
2018-06-14T07:03:59.123Z,16.60
2018-06-14T07:06:28.478Z,16.70
2018-06-14T07:08:57.787Z,16.90
2018-06-14T07:11:27.204Z,16.70
2018-06-14T07:13:56.488Z,17.00
2018-06-14T07:16:25.795Z,17.20
2018-06-14T07:18:55.141Z,17.40
2018-06-14T07:23:53.298Z,17.50
2018-06-14T07:26:22.624Z,17.70
2018-06-14T07:31:20.899Z,17.80
2018-06-14T07:33:50.202Z,17.70
2018-06-14T07:36:19.473Z,17.80
2018-06-14T07:38:48.886Z,17.90
2018-06-14T07:41:18.222Z,17.90
2018-06-14T07:43:47.576Z,18.00
2018-06-14T07:46:16.962Z,18.00
2018-06-14T07:48:46.303Z,17.90
2018-06-14T07:51:15.614Z,18.10
2018-06-14T07:53:44.956Z,18.20
2018-06-14T07:56:14.319Z,18.10
2018-06-14T07:58:43.687Z,18.10
2018-06-14T08:01:13.039Z,17.70
2018-06-14T08:03:42.432Z,17.80
2018-06-14T08:06:11.700Z,18.00
2018-06-14T08:08:41.175Z,18.10
2018-06-14T08:11:10.509Z,18.10
2018-06-14T08:13:40.083Z,17.90
2018-06-14T08:16:09.483Z,18.10
2018-06-14T08:18:38.754Z,18.20
2018-06-14T08:21:08.052Z,18.30
2018-06-14T08:23:37.328Z,18.30
2018-06-14T08:26:06.687Z,18.20
2018-06-14T08:28:36.008Z,18.20
2018-06-14T08:31:05.324Z,18.30
2018-06-14T08:33:34.607Z,18.30
2018-06-14T08:36:04.010Z,18.20
2018-06-14T08:38:33.279Z,18.30
2018-06-14T08:41:02.620Z,18.40
2018-06-14T08:43:31.896Z,18.40
2018-06-14T08:46:01.319Z,18.50
2018-06-14T08:48:30.687Z,18.50
2018-06-14T08:50:59.988Z,18.60
2018-06-14T08:53:29.289Z,18.50
2018-06-14T08:55:58.669Z,18.70
2018-06-14T08:58:28.008Z,18.70
2018-06-14T09:00:57.348Z,18.80
2018-06-14T09:03:26.622Z,18.60
2018-06-14T09:05:55.936Z,18.70
2018-06-14T09:08:25.259Z,18.40
2018-06-14T09:10:54.584Z,18.40
2018-06-14T09:13:23.909Z,18.60
2018-06-14T09:15:53.196Z,18.90
2018-06-14T14:56:40.659Z,23.20
2018-06-14T14:59:10.093Z,23.20
2018-06-14T15:01:40.560Z,23.40
2018-06-14T15:04:09.972Z,23.30
2018-06-14T15:06:39.497Z,23.20
2018-06-14T15:09:10.986Z,23.30
2018-06-14T15:11:40.460Z,23.40
2018-06-14T15:14:09.932Z,23.40
2018-06-14T15:16:39.368Z,23.20
2018-06-14T15:19:08.627Z,23.30
2018-06-14T15:21:37.930Z,23.10
2018-06-14T15:24:07.312Z,23.00
2018-06-14T15:26:36.659Z,22.90
2018-06-14T15:29:07.054Z,22.70
2018-06-14T15:31:36.460Z,22.80
2018-06-14T15:34:05.908Z,22.80
2018-06-14T15:36:37.321Z,22.90
2018-06-14T15:39:08.006Z,23.00
2018-06-14T15:44:07.315Z,23.10
2018-06-14T15:49:06.559Z,23.00
2018-06-14T15:51:36.373Z,22.90
2018-06-14T15:54:05.964Z,22.80
2018-06-14T15:56:39.080Z,22.80
2018-06-14T15:59:09.789Z,22.70
2018-06-14T16:01:39.197Z,22.80
2018-06-14T16:04:08.848Z,22.90
2018-06-14T16:06:38.189Z,23.00
2018-06-14T16:09:08.649Z,23.00
2018-06-14T16:11:38.093Z,23.00
2018-06-14T16:14:07.598Z,22.70
2018-06-14T16:16:37.041Z,22.60
2018-06-14T16:19:06.384Z,22.60
2018-06-14T16:21:35.744Z,22.70
2018-06-14T16:24:06.149Z,22.60
2018-06-14T16:26:36.655Z,22.50
2018-06-14T16:29:05.928Z,22.40
2018-06-14T16:31:39.968Z,22.40
2018-06-14T16:34:09.355Z,22.30
2018-06-14T16:36:38.736Z,22.20
2018-06-14T16:39:08.920Z,22.20
2018-06-14T16:41:38.267Z,22.20
2018-06-14T16:44:15.327Z,22.20
2018-06-14T16:46:44.653Z,22.30
2018-06-14T16:49:13.940Z,22.20
2018-06-14T16:51:43.289Z,22.20
2018-06-14T16:54:12.668Z,22.20
2018-06-14T16:56:42.068Z,22.30
2018-06-14T16:59:11.455Z,22.00
2018-06-14T17:01:41.772Z,22.00
2018-06-14T17:06:41.061Z,21.60
2018-06-14T17:09:11.515Z,21.50
2018-06-14T17:11:41.889Z,21.70
2018-06-14T17:14:11.243Z,21.70
2018-06-14T17:16:41.556Z,21.70
2018-06-14T17:19:10.840Z,21.60
2018-06-14T17:21:40.122Z,21.60
2018-06-14T17:24:10.506Z,21.70
2018-06-14T17:26:40.880Z,21.60
2018-06-14T17:29:10.218Z,21.60
2018-06-14T17:31:39.689Z,21.60
2018-06-14T17:34:09.056Z,21.50
2018-06-14T17:36:38.348Z,21.40
2018-06-14T17:39:08.012Z,21.40
2018-06-14T17:41:37.547Z,21.40
2018-06-14T17:44:06.867Z,21.30
2018-06-14T17:46:36.152Z,21.20
2018-06-14T17:49:05.545Z,21.10
2018-06-14T17:51:34.843Z,21.20
2018-06-14T17:54:04.168Z,21.00
2018-06-14T17:56:33.526Z,20.90
2018-06-14T17:59:02.832Z,20.90
2018-06-14T18:01:32.202Z,20.90
2018-06-14T18:04:01.513Z,20.90
2018-06-14T18:06:30.825Z,21.00
2018-06-14T18:09:00.106Z,21.00
2018-06-14T18:11:29.496Z,20.90
2018-06-14T18:13:58.892Z,20.80
2018-06-14T18:16:28.248Z,20.70
2018-06-14T18:18:57.600Z,20.80
2018-06-14T18:21:29.032Z,20.80
2018-06-14T18:23:58.339Z,20.50
2018-06-14T18:26:27.618Z,20.50
2018-06-14T18:28:56.933Z,20.40
2018-06-14T18:31:26.263Z,20.30
2018-06-14T18:33:55.646Z,20.20
2018-06-14T18:36:25.049Z,20.10
2018-06-14T18:38:54.438Z,20.00
2018-06-14T18:41:23.798Z,20.00
2018-06-14T18:43:53.084Z,19.90
2018-06-14T18:46:22.408Z,20.00
2018-06-14T18:48:53.013Z,19.80
2018-06-14T18:51:22.415Z,19.90
2018-06-14T18:53:51.783Z,19.70
2018-06-14T18:56:21.148Z,19.70
2018-06-14T18:58:52.600Z,19.70
2018-06-14T19:01:22.701Z,19.30
2018-06-14T19:03:52.512Z,19.50
2018-06-14T19:06:22.410Z,19.40
2018-06-14T19:08:51.727Z,19.40
2018-06-14T19:11:21.159Z,19.30
2018-06-14T19:13:50.534Z,19.10
2018-06-14T19:16:19.826Z,19.10
2018-06-14T19:18:49.148Z,18.80
2018-06-14T19:21:18.562Z,18.50
2018-06-14T19:23:47.840Z,18.40
2018-06-14T19:26:17.290Z,18.30
2018-06-14T19:28:48.633Z,18.40
2018-06-14T19:31:18.017Z,18.70
2018-06-14T19:33:47.438Z,18.10
2018-06-14T19:36:16.773Z,17.80
2018-06-14T19:38:46.106Z,17.90
2018-06-14T19:41:15.463Z,17.80
2018-06-14T19:43:44.774Z,17.70
2018-06-14T19:48:43.135Z,17.50
2018-06-14T19:51:12.487Z,17.50
2018-06-14T19:53:41.867Z,17.30
2018-06-14T19:56:11.359Z,17.20
2018-06-14T19:58:41.716Z,17.10
2018-06-14T20:01:11.171Z,17.00
2018-06-14T20:03:40.473Z,17.00
2018-06-14T20:06:09.800Z,17.10
2018-06-14T20:08:39.051Z,16.80
2018-06-14T20:11:08.411Z,16.90
2018-06-14T20:13:37.710Z,16.90
2018-06-14T20:16:07.084Z,16.50
2018-06-14T20:18:36.367Z,16.50
2018-06-14T20:21:05.754Z,16.50
2018-06-14T20:23:35.017Z,16.50
2018-06-14T20:26:04.345Z,16.50
2018-06-14T20:28:33.617Z,16.30
2018-06-14T20:31:03.063Z,16.40
2018-06-14T20:33:32.335Z,16.30
2018-06-14T20:36:01.657Z,16.00
2018-06-14T20:38:30.999Z,16.00
2018-06-14T20:41:00.380Z,16.10
2018-06-14T20:43:29.703Z,16.10
2018-06-14T20:45:59.113Z,16.00
2018-06-14T20:48:28.372Z,15.70
2018-06-14T20:51:00.921Z,15.40
2018-06-14T20:53:31.175Z,15.30
2018-06-14T20:56:00.632Z,15.30
2018-06-14T20:58:29.923Z,15.40
2018-06-14T21:00:59.270Z,15.30
2018-06-14T21:03:28.578Z,15.40
2018-06-14T21:05:57.888Z,15.10
2018-06-14T21:08:27.252Z,15.00
2018-06-14T21:10:56.586Z,15.00
2018-06-14T21:13:25.876Z,15.00
2018-06-14T21:15:55.257Z,15.00
2018-06-14T21:18:24.512Z,15.00
2018-06-14T21:20:53.798Z,15.00
2018-06-14T21:23:23.173Z,15.00
2018-06-14T21:25:52.448Z,15.00
2018-06-14T21:28:21.800Z,14.80
2018-06-14T21:30:51.059Z,14.70
2018-06-14T21:33:20.434Z,14.50
2018-06-14T21:35:49.806Z,14.50
2018-06-14T21:38:19.097Z,14.60
2018-06-14T21:40:48.355Z,14.80
2018-06-14T21:43:17.765Z,14.70
2018-06-14T21:45:47.016Z,14.60
2018-06-14T21:48:16.324Z,14.70
2018-06-14T21:50:45.592Z,14.60
2018-06-14T21:53:14.937Z,14.50
2018-06-14T21:55:44.320Z,14.40
2018-06-14T22:00:42.530Z,14.30
2018-06-14T22:03:17.409Z,14.30
2018-06-14T22:05:46.697Z,14.30
2018-06-14T22:08:16.011Z,14.30
2018-06-14T22:10:45.298Z,14.20
2018-06-14T22:13:14.575Z,14.10
2018-06-14T22:15:44.226Z,14.10
2018-06-14T22:18:13.735Z,14.10
2018-06-14T22:20:43.016Z,14.20
2018-06-14T22:23:12.344Z,14.10
2018-06-14T22:25:41.680Z,14.10
2018-06-14T22:28:10.949Z,14.10
2018-06-14T22:30:40.267Z,14.20
2018-06-14T22:33:20.884Z,14.20
2018-06-14T22:35:51.288Z,14.10
2018-06-14T22:38:20.607Z,14.00
2018-06-14T22:40:49.933Z,14.20
2018-06-14T22:43:19.201Z,14.20
2018-06-14T22:45:48.512Z,14.00
2018-06-14T22:48:17.828Z,14.00
2018-06-14T22:51:20.405Z,14.00
2018-06-14T22:53:49.725Z,14.00
2018-06-14T22:56:19.205Z,14.00
2018-06-14T22:58:48.552Z,13.90
2018-06-14T23:01:40.864Z,13.90
2018-06-14T23:04:11.344Z,13.90
2018-06-14T23:06:40.685Z,13.90
2018-06-14T23:10:28.619Z,13.80
2018-06-14T23:12:58.061Z,13.80
2018-06-14T23:15:27.462Z,13.90
2018-06-14T23:17:56.879Z,13.90
2018-06-14T23:20:27.318Z,13.90
2018-06-14T23:22:57.558Z,13.90
2018-06-14T23:25:27.644Z,13.80
2018-06-14T23:27:57.026Z,13.60
2018-06-14T23:30:26.331Z,13.90
2018-06-14T23:32:55.667Z,13.50
2018-06-14T23:35:24.959Z,13.50
2018-06-14T23:37:54.336Z,13.50
2018-06-14T23:40:23.776Z,13.50
2018-06-14T23:42:53.073Z,13.60
2018-06-14T23:45:22.479Z,13.60
2018-06-14T23:47:51.887Z,13.60
2018-06-14T23:50:21.248Z,13.60
2018-06-14T23:52:50.592Z,13.60
2018-06-14T23:55:19.876Z,13.60
2018-06-14T23:57:49.298Z,13.60
